createdAt,value
2023-04-14T00:03:36.092Z,19.20
2023-04-14T00:13:40.398Z,18.20
2023-04-14T00:23:43.988Z,19.80
2023-04-14T00:33:49.558Z,16.90
2023-04-14T00:43:56.650Z,14.90
2023-04-14T00:54:02.768Z,17.10
2023-04-14T01:04:07.371Z,16.90
2023-04-14T01:15:31.640Z,18.00
2023-04-14T01:26:18.857Z,18.60
2023-04-14T01:36:37.954Z,16.30
2023-04-14T01:46:46.623Z,16.00
2023-04-14T01:56:53.852Z,17.80
2023-04-14T02:07:05.393Z,17.30
2023-04-14T02:17:13.819Z,16.90
2023-04-14T02:27:46.535Z,18.10
2023-04-14T02:37:57.612Z,19.80
2023-04-14T02:48:07.539Z,18.70
2023-04-14T02:58:12.147Z,17.90
2023-04-14T03:08:20.589Z,16.80
2023-04-14T03:18:31.541Z,16.70
2023-04-14T03:28:38.039Z,17.50
2023-04-14T03:38:45.905Z,17.60
2023-04-14T03:48:56.777Z,18.30
2023-04-14T03:59:03.017Z,18.10
2023-04-14T04:09:14.650Z,17.60
2023-04-14T04:19:23.546Z,18.10
2023-04-14T04:29:27.590Z,16.60
2023-04-14T04:39:31.487Z,17.10
2023-04-14T04:49:44.366Z,15.40
2023-04-14T04:59:49.312Z,17.70
2023-04-14T05:09:53.498Z,16.20
2023-04-14T05:19:59.171Z,17.00
2023-04-14T05:30:03.951Z,22.80
2023-04-14T05:40:08.360Z,17.90
2023-04-14T05:50:12.242Z,17.80
2023-04-14T06:00:18.284Z,15.40
2023-04-14T06:10:21.835Z,15.50
2023-04-14T06:20:27.838Z,14.70
2023-04-14T06:30:32.578Z,14.50
2023-04-14T06:40:38.230Z,22.40
2023-04-14T06:50:45.608Z,17.60
2023-04-14T07:00:49.190Z,17.90
2023-04-14T07:10:59.967Z,19.70
2023-04-14T07:21:05.493Z,20.10
2023-04-14T07:31:11.022Z,19.50
2023-04-14T07:41:14.942Z,19.90
2023-04-14T07:51:22.125Z,18.70
2023-04-14T08:01:25.898Z,20.30
2023-04-14T08:11:32.268Z,19.80
2023-04-14T08:21:35.908Z,22.10
2023-04-14T08:31:39.470Z,19.20
2023-04-14T08:41:45.143Z,19.60
2023-04-14T08:51:52.206Z,18.40
2023-04-14T09:01:56.649Z,17.70
2023-04-14T09:12:04.500Z,17.40
2023-04-14T09:22:08.203Z,17.50
2023-04-14T09:32:12.962Z,17.90
2023-04-14T09:42:20.294Z,16.30
2023-04-14T09:52:38.823Z,16.10
2023-04-14T10:03:01.927Z,15.40
2023-04-14T10:13:09.221Z,15.70
2023-04-14T10:23:13.318Z,15.10
2023-04-14T10:33:17.089Z,13.60
2023-04-14T10:43:29.627Z,13.50
2023-04-14T10:53:46.651Z,12.40
2023-04-14T11:03:51.231Z,11.90
2023-04-14T11:14:11.858Z,12.30
2023-04-14T11:24:15.891Z,12.50
2023-04-14T11:34:26.092Z,14.30
2023-04-14T11:44:32.627Z,13.70
2023-04-14T11:54:40.006Z,14.50
2023-04-14T12:04:51.123Z,12.70
2023-04-14T12:14:56.377Z,14.60
2023-04-14T12:25:13.552Z,12.80
2023-04-14T12:35:24.808Z,19.40
2023-04-14T12:45:43.929Z,20.90
2023-04-14T12:56:16.578Z,11.40
2023-04-14T13:06:22.945Z,12.60
2023-04-14T13:16:29.719Z,14.00
2023-04-14T13:26:34.278Z,14.90
2023-04-14T13:36:39.208Z,14.10
2023-04-14T13:46:45.906Z,18.40
2023-04-14T13:56:51.499Z,14.60
2023-04-14T14:06:56.933Z,14.30
2023-04-14T14:17:02.534Z,12.90
2023-04-14T14:27:06.816Z,15.50
2023-04-14T14:37:10.414Z,13.70
2023-04-14T14:47:14.037Z,14.40
2023-04-14T14:57:19.819Z,10.60
2023-04-14T15:07:23.375Z,11.00
2023-04-14T15:17:30.412Z,11.10
2023-04-14T15:27:34.072Z,8.50
2023-04-14T15:37:37.773Z,8.80
2023-04-14T15:47:41.298Z,8.70
2023-04-14T15:57:45.015Z,14.00
2023-04-14T16:07:49.002Z,9.60
2023-04-14T16:17:52.686Z,9.50
2023-04-14T16:27:57.565Z,10.10
2023-04-14T16:38:03.399Z,10.90
2023-04-14T16:48:07.466Z,12.20
2023-04-14T16:58:13.609Z,12.60
2023-04-14T17:08:21.694Z,14.50
2023-04-14T17:18:25.206Z,15.40
2023-04-14T17:28:29.031Z,16.90
2023-04-14T17:38:35.259Z,16.40
2023-04-14T17:48:39.639Z,16.30
2023-04-14T17:58:47.071Z,18.60
2023-04-14T18:08:50.778Z,19.60
2023-04-14T18:18:55.210Z,17.10
2023-04-14T18:29:00.469Z,17.20
2023-04-14T18:39:07.257Z,17.50
2023-04-14T18:49:12.569Z,18.10
2023-04-14T18:59:18.767Z,17.30
2023-04-14T19:09:25.419Z,17.30
2023-04-14T19:19:29.944Z,17.80
2023-04-14T19:29:35.879Z,17.50
2023-04-14T19:39:40.718Z,18.10
2023-04-14T19:49:48.173Z,18.30
2023-04-14T19:59:53.522Z,17.40
2023-04-14T20:09:57.640Z,17.40
2023-04-14T20:20:06.962Z,18.40
2023-04-14T20:30:13.270Z,17.30
2023-04-14T20:40:19.300Z,16.50
2023-04-14T20:50:22.926Z,16.70
2023-04-14T21:00:26.840Z,17.20
2023-04-14T21:10:30.584Z,17.10
2023-04-14T21:20:36.023Z,17.30
2023-04-14T21:30:39.581Z,16.60
2023-04-14T21:40:45.195Z,15.60
2023-04-14T21:50:49.480Z,16.10
2023-04-14T22:00:55.086Z,16.80
2023-04-14T22:11:00.494Z,16.10
2023-04-14T22:21:04.977Z,15.50
2023-04-14T22:31:10.422Z,14.60
2023-04-14T22:41:18.532Z,13.90
2023-04-14T22:51:22.497Z,14.50
2023-04-14T23:01:31.564Z,14.60
2023-04-14T23:11:35.162Z,14.30
2023-04-14T23:21:42.336Z,15.20
2023-04-14T23:31:46.333Z,15.00
2023-04-14T23:41:52.981Z,15.50
2023-04-14T23:51:57.079Z,14.60
